sensor_id;sensor_type;location;lat;lon;timestamp;P1;durP1;ratioP1;P2;durP2;ratioP2
22097;SDS011;11215;51.938;8.464;2022-07-03T00:01:49;1.90;;;1.80;;
22097;SDS011;11215;51.938;8.464;2022-07-03T00:04:14;2.40;;;2.00;;
22097;SDS011;11215;51.938;8.464;2022-07-03T00:06:40;2.50;;;1.90;;
22097;SDS011;11215;51.938;8.464;2022-07-03T00:09:06;2.53;;;1.90;;
22097;SDS011;11215;51.938;8.464;2022-07-03T00:11:32;3.30;;;1.90;;
22097;SDS011;11215;51.938;8.464;2022-07-03T00:13:58;2.43;;;2.07;;
22097;SDS011;11215;51.938;8.464;2022-07-03T00:16:24;2.10;;;1.90;;
22097;SDS011;11215;51.938;8.464;2022-07-03T00:18:50;2.20;;;2.00;;
22097;SDS011;11215;51.938;8.464;2022-07-03T00:21:17;2.43;;;2.13;;
22097;SDS011;11215;51.938;8.464;2022-07-03T00:24:01;4.00;;;2.20;;
22097;SDS011;11215;51.938;8.464;2022-07-03T00:26:34;3.27;;;2.10;;
22097;SDS011;11215;51.938;8.464;2022-07-03T00:29:03;2.47;;;2.23;;
22097;SDS011;11215;51.938;8.464;2022-07-03T00:31:31;2.10;;;1.80;;
22097;SDS011;11215;51.938;8.464;2022-07-03T00:33:58;2.77;;;1.90;;
22097;SDS011;11215;51.938;8.464;2022-07-03T00:36:26;2.03;;;1.80;;
22097;SDS011;11215;51.938;8.464;2022-07-03T00:38:58;3.33;;;2.13;;
22097;SDS011;11215;51.938;8.464;2022-07-03T00:41:28;2.83;;;1.97;;
22097;SDS011;11215;51.938;8.464;2022-07-03T00:43:55;1.87;;;1.77;;
22097;SDS011;11215;51.938;8.464;2022-07-03T00:46:22;2.20;;;2.00;;
22097;SDS011;11215;51.938;8.464;2022-07-03T00:48:50;2.30;;;1.77;;
22097;SDS011;11215;51.938;8.464;2022-07-03T00:51:21;2.60;;;2.00;;
22097;SDS011;11215;51.938;8.464;2022-07-03T00:53:52;1.97;;;1.80;;
22097;SDS011;11215;51.938;8.464;2022-07-03T00:56:27;1.73;;;1.60;;
22097;SDS011;11215;51.938;8.464;2022-07-03T00:58:56;2.90;;;1.60;;
22097;SDS011;11215;51.938;8.464;2022-07-03T01:01:28;2.23;;;1.70;;
22097;SDS011;11215;51.938;8.464;2022-07-03T01:04:10;2.87;;;1.63;;
22097;SDS011;11215;51.938;8.464;2022-07-03T01:06:40;3.37;;;1.50;;
22097;SDS011;11215;51.938;8.464;2022-07-03T01:09:12;2.00;;;1.50;;
22097;SDS011;11215;51.938;8.464;2022-07-03T01:11:38;2.40;;;1.60;;
22097;SDS011;11215;51.938;8.464;2022-07-03T01:17:05;2.23;;;1.50;;
22097;SDS011;11215;51.938;8.464;2022-07-03T01:25:12;1.50;;;1.40;;
22097;SDS011;11215;51.938;8.464;2022-07-03T01:28:03;1.50;;;1.40;;
22097;SDS011;11215;51.938;8.464;2022-07-03T01:30:46;1.80;;;1.50;;
22097;SDS011;11215;51.938;8.464;2022-07-03T01:33:18;2.40;;;1.70;;
22097;SDS011;11215;51.938;8.464;2022-07-03T01:38:27;4.37;;;1.93;;
22097;SDS011;11215;51.938;8.464;2022-07-03T01:40:54;2.00;;;1.80;;
22097;SDS011;11215;51.938;8.464;2022-07-03T01:43:30;1.60;;;1.50;;
22097;SDS011;11215;51.938;8.464;2022-07-03T01:45:58;2.77;;;1.57;;
22097;SDS011;11215;51.938;8.464;2022-07-03T01:48:25;2.60;;;1.30;;
22097;SDS011;11215;51.938;8.464;2022-07-03T01:50:52;2.20;;;1.37;;
22097;SDS011;11215;51.938;8.464;2022-07-03T01:53:19;1.53;;;1.43;;
22097;SDS011;11215;51.938;8.464;2022-07-03T01:55:48;2.17;;;1.63;;
22097;SDS011;11215;51.938;8.464;2022-07-03T01:58:15;1.90;;;1.80;;
22097;SDS011;11215;51.938;8.464;2022-07-03T02:00:47;4.20;;;1.90;;
22097;SDS011;11215;51.938;8.464;2022-07-03T02:03:31;1.83;;;1.67;;
22097;SDS011;11215;51.938;8.464;2022-07-03T02:06:07;2.03;;;1.90;;
22097;SDS011;11215;51.938;8.464;2022-07-03T02:09:01;2.07;;;1.97;;
22097;SDS011;11215;51.938;8.464;2022-07-03T02:11:26;3.03;;;1.87;;
22097;SDS011;11215;51.938;8.464;2022-07-03T02:16:28;2.00;;;1.90;;
22097;SDS011;11215;51.938;8.464;2022-07-03T02:19:02;1.80;;;1.70;;
22097;SDS011;11215;51.938;8.464;2022-07-03T02:21:30;1.80;;;1.70;;
22097;SDS011;11215;51.938;8.464;2022-07-03T02:27:06;1.63;;;1.53;;
22097;SDS011;11215;51.938;8.464;2022-07-03T02:29:41;1.63;;;1.53;;
22097;SDS011;11215;51.938;8.464;2022-07-03T02:32:12;1.97;;;1.70;;
22097;SDS011;11215;51.938;8.464;2022-07-03T02:34:44;1.97;;;1.83;;
22097;SDS011;11215;51.938;8.464;2022-07-03T02:37:15;4.57;;;2.10;;
22097;SDS011;11215;51.938;8.464;2022-07-03T02:39:51;2.13;;;2.00;;
22097;SDS011;11215;51.938;8.464;2022-07-03T02:45:23;3.20;;;2.20;;
22097;SDS011;11215;51.938;8.464;2022-07-03T02:47:59;2.97;;;1.90;;
22097;SDS011;11215;51.938;8.464;2022-07-03T02:50:30;1.90;;;1.80;;
22097;SDS011;11215;51.938;8.464;2022-07-03T02:53:01;2.63;;;1.83;;
22097;SDS011;11215;51.938;8.464;2022-07-03T03:04:31;2.10;;;2.00;;
22097;SDS011;11215;51.938;8.464;2022-07-03T03:06:46;2.20;;;2.00;;
22097;SDS011;11215;51.938;8.464;2022-07-03T03:09:40;2.03;;;1.83;;
22097;SDS011;11215;51.938;8.464;2022-07-03T03:12:11;2.50;;;1.80;;
22097;SDS011;11215;51.938;8.464;2022-07-03T03:14:38;1.90;;;1.80;;
22097;SDS011;11215;51.938;8.464;2022-07-03T03:17:09;2.00;;;1.90;;
22097;SDS011;11215;51.938;8.464;2022-07-03T03:19:51;2.20;;;1.80;;
22097;SDS011;11215;51.938;8.464;2022-07-03T03:22:28;3.23;;;1.73;;
22097;SDS011;11215;51.938;8.464;2022-07-03T03:25:13;1.63;;;1.33;;
22097;SDS011;11215;51.938;8.464;2022-07-03T03:27:40;2.73;;;2.30;;
22097;SDS011;11215;51.938;8.464;2022-07-03T03:30:06;2.53;;;2.03;;
22097;SDS011;11215;51.938;8.464;2022-07-03T03:32:33;3.30;;;1.97;;
22097;SDS011;11215;51.938;8.464;2022-07-03T03:35:01;3.27;;;1.80;;
22097;SDS011;11215;51.938;8.464;2022-07-03T03:37:26;1.60;;;1.50;;
22097;SDS011;11215;51.938;8.464;2022-07-03T03:39:52;1.77;;;1.67;;
22097;SDS011;11215;51.938;8.464;2022-07-03T03:42:18;2.07;;;1.83;;
22097;SDS011;11215;51.938;8.464;2022-07-03T03:44:43;1.87;;;1.77;;
22097;SDS011;11215;51.938;8.464;2022-07-03T03:47:09;2.60;;;1.80;;
22097;SDS011;11215;51.938;8.464;2022-07-03T03:49:35;2.97;;;1.60;;
22097;SDS011;11215;51.938;8.464;2022-07-03T03:52:01;2.03;;;1.83;;
22097;SDS011;11215;51.938;8.464;2022-07-03T03:54:27;2.03;;;1.90;;
22097;SDS011;11215;51.938;8.464;2022-07-03T03:56:52;2.00;;;1.80;;
22097;SDS011;11215;51.938;8.464;2022-07-03T03:59:18;2.03;;;1.90;;
22097;SDS011;11215;51.938;8.464;2022-07-03T04:01:43;3.10;;;1.80;;
22097;SDS011;11215;51.938;8.464;2022-07-03T04:04:11;2.00;;;1.80;;
22097;SDS011;11215;51.938;8.464;2022-07-03T04:06:37;2.10;;;2.00;;
22097;SDS011;11215;51.938;8.464;2022-07-03T04:09:03;2.07;;;1.90;;
22097;SDS011;11215;51.938;8.464;2022-07-03T04:11:28;1.97;;;1.87;;
22097;SDS011;11215;51.938;8.464;2022-07-03T04:13:54;1.83;;;1.73;;
22097;SDS011;11215;51.938;8.464;2022-07-03T04:16:20;2.13;;;1.93;;
22097;SDS011;11215;51.938;8.464;2022-07-03T04:18:45;2.20;;;2.10;;
22097;SDS011;11215;51.938;8.464;2022-07-03T04:21:11;2.10;;;1.90;;
22097;SDS011;11215;51.938;8.464;2022-07-03T04:23:36;2.30;;;2.10;;
22097;SDS011;11215;51.938;8.464;2022-07-03T04:26:03;2.20;;;2.00;;
22097;SDS011;11215;51.938;8.464;2022-07-03T04:28:29;2.97;;;2.10;;
22097;SDS011;11215;51.938;8.464;2022-07-03T04:30:55;2.30;;;2.10;;
22097;SDS011;11215;51.938;8.464;2022-07-03T04:33:21;2.80;;;2.33;;
22097;SDS011;11215;51.938;8.464;2022-07-03T04:35:46;1.97;;;1.87;;
22097;SDS011;11215;51.938;8.464;2022-07-03T04:38:12;3.63;;;2.20;;
22097;SDS011;11215;51.938;8.464;2022-07-03T04:40:37;2.73;;;1.83;;
22097;SDS011;11215;51.938;8.464;2022-07-03T04:43:03;2.77;;;2.03;;
22097;SDS011;11215;51.938;8.464;2022-07-03T04:45:29;2.00;;;1.80;;
22097;SDS011;11215;51.938;8.464;2022-07-03T04:47:54;2.40;;;2.20;;
22097;SDS011;11215;51.938;8.464;2022-07-03T04:50:20;3.03;;;2.17;;
22097;SDS011;11215;51.938;8.464;2022-07-03T04:52:45;1.97;;;1.80;;
22097;SDS011;11215;51.938;8.464;2022-07-03T04:55:11;2.67;;;1.90;;
22097;SDS011;11215;51.938;8.464;2022-07-03T04:57:37;2.07;;;1.87;;
22097;SDS011;11215;51.938;8.464;2022-07-03T05:00:04;2.53;;;1.90;;
22097;SDS011;11215;51.938;8.464;2022-07-03T05:02:30;2.30;;;2.17;;
22097;SDS011;11215;51.938;8.464;2022-07-03T05:04:56;2.08;;;1.92;;
22097;SDS011;11215;51.938;8.464;2022-07-03T05:07:21;2.28;;;2.08;;
22097;SDS011;11215;51.938;8.464;2022-07-03T05:09:47;2.25;;;2.08;;
22097;SDS011;11215;51.938;8.464;2022-07-03T05:12:13;2.80;;;2.00;;
22097;SDS011;11215;51.938;8.464;2022-07-03T05:14:38;3.08;;;1.90;;
22097;SDS011;11215;51.938;8.464;2022-07-03T05:17:04;2.22;;;2.10;;
22097;SDS011;11215;51.938;8.464;2022-07-03T05:19:29;2.00;;;1.90;;
22097;SDS011;11215;51.938;8.464;2022-07-03T05:21:55;3.72;;;2.30;;
22097;SDS011;11215;51.938;8.464;2022-07-03T05:24:20;1.85;;;1.75;;
22097;SDS011;11215;51.938;8.464;2022-07-03T05:26:46;2.10;;;2.00;;
22097;SDS011;11215;51.938;8.464;2022-07-03T05:29:12;2.67;;;2.13;;
22097;SDS011;11215;51.938;8.464;2022-07-03T05:31:37;2.40;;;2.20;;
22097;SDS011;11215;51.938;8.464;2022-07-03T05:34:03;1.98;;;1.88;;
22097;SDS011;11215;51.938;8.464;2022-07-03T05:36:28;3.38;;;2.00;;
22097;SDS011;11215;51.938;8.464;2022-07-03T05:38:54;2.75;;;1.92;;
22097;SDS011;11215;51.938;8.464;2022-07-03T05:41:38;2.97;;;1.95;;
22097;SDS011;11215;51.938;8.464;2022-07-03T05:44:04;2.50;;;2.22;;
22097;SDS011;11215;51.938;8.464;2022-07-03T05:46:29;2.58;;;2.00;;
22097;SDS011;11215;51.938;8.464;2022-07-03T05:48:55;2.67;;;2.40;;
22097;SDS011;11215;51.938;8.464;2022-07-03T05:51:21;4.25;;;2.13;;
22097;SDS011;11215;51.938;8.464;2022-07-03T05:53:46;2.40;;;2.10;;
22097;SDS011;11215;51.938;8.464;2022-07-03T05:56:12;2.03;;;1.85;;
22097;SDS011;11215;51.938;8.464;2022-07-03T05:58:37;1.98;;;1.88;;
22097;SDS011;11215;51.938;8.464;2022-07-03T06:01:03;2.30;;;2.08;;
22097;SDS011;11215;51.938;8.464;2022-07-03T06:03:29;3.38;;;2.13;;
22097;SDS011;11215;51.938;8.464;2022-07-03T06:05:54;2.72;;;2.30;;
22097;SDS011;11215;51.938;8.464;2022-07-03T06:08:20;2.08;;;1.98;;
22097;SDS011;11215;51.938;8.464;2022-07-03T06:10:45;3.63;;;2.30;;
22097;SDS011;11215;51.938;8.464;2022-07-03T06:13:11;3.78;;;2.35;;
22097;SDS011;11215;51.938;8.464;2022-07-03T06:15:36;2.28;;;1.88;;
22097;SDS011;11215;51.938;8.464;2022-07-03T06:18:02;2.58;;;2.15;;
22097;SDS011;11215;51.938;8.464;2022-07-03T06:20:28;2.25;;;1.92;;
22097;SDS011;11215;51.938;8.464;2022-07-03T06:22:53;3.08;;;2.03;;
22097;SDS011;11215;51.938;8.464;2022-07-03T06:25:19;2.17;;;2.08;;
22097;SDS011;11215;51.938;8.464;2022-07-03T06:27:45;2.40;;;2.25;;
22097;SDS011;11215;51.938;8.464;2022-07-03T06:30:10;5.28;;;2.20;;
22097;SDS011;11215;51.938;8.464;2022-07-03T06:32:36;3.08;;;2.15;;
22097;SDS011;11215;51.938;8.464;2022-07-03T06:35:02;4.22;;;2.38;;
22097;SDS011;11215;51.938;8.464;2022-07-03T06:37:28;2.97;;;2.55;;
22097;SDS011;11215;51.938;8.464;2022-07-03T06:39:53;3.47;;;1.98;;
22097;SDS011;11215;51.938;8.464;2022-07-03T06:42:19;3.55;;;2.40;;
22097;SDS011;11215;51.938;8.464;2022-07-03T06:44:45;3.25;;;2.25;;
22097;SDS011;11215;51.938;8.464;2022-07-03T06:47:10;3.28;;;2.78;;
22097;SDS011;11215;51.938;8.464;2022-07-03T06:49:36;3.95;;;2.50;;
22097;SDS011;11215;51.938;8.464;2022-07-03T06:52:02;3.60;;;2.72;;
22097;SDS011;11215;51.938;8.464;2022-07-03T06:54:27;2.50;;;2.13;;
22097;SDS011;11215;51.938;8.464;2022-07-03T06:56:53;2.15;;;1.95;;
22097;SDS011;11215;51.938;8.464;2022-07-03T06:59:19;2.90;;;2.60;;
22097;SDS011;11215;51.938;8.464;2022-07-03T07:01:44;4.40;;;2.65;;
22097;SDS011;11215;51.938;8.464;2022-07-03T07:04:10;4.10;;;2.53;;
22097;SDS011;11215;51.938;8.464;2022-07-03T07:06:36;2.13;;;1.92;;
22097;SDS011;11215;51.938;8.464;2022-07-03T07:09:02;4.20;;;2.65;;
22097;SDS011;11215;51.938;8.464;2022-07-03T07:11:28;3.53;;;3.03;;
22097;SDS011;11215;51.938;8.464;2022-07-03T07:13:54;2.97;;;2.70;;
22097;SDS011;11215;51.938;8.464;2022-07-03T07:16:19;2.88;;;2.67;;
22097;SDS011;11215;51.938;8.464;2022-07-03T07:18:45;3.47;;;2.60;;
22097;SDS011;11215;51.938;8.464;2022-07-03T07:21:11;4.20;;;3.00;;
22097;SDS011;11215;51.938;8.464;2022-07-03T07:23:36;2.45;;;2.25;;
22097;SDS011;11215;51.938;8.464;2022-07-03T07:26:02;4.20;;;3.80;;
22097;SDS011;11215;51.938;8.464;2022-07-03T07:28:28;3.17;;;2.63;;
22097;SDS011;11215;51.938;8.464;2022-07-03T07:30:55;3.40;;;2.88;;
22097;SDS011;11215;51.938;8.464;2022-07-03T07:33:22;4.10;;;2.55;;
22097;SDS011;11215;51.938;8.464;2022-07-03T07:35:48;2.95;;;2.75;;
22097;SDS011;11215;51.938;8.464;2022-07-03T07:38:15;4.15;;;2.92;;
22097;SDS011;11215;51.938;8.464;2022-07-03T07:40:40;6.40;;;2.80;;
22097;SDS011;11215;51.938;8.464;2022-07-03T07:43:06;4.43;;;2.40;;
22097;SDS011;11215;51.938;8.464;2022-07-03T07:45:32;4.70;;;2.67;;
22097;SDS011;11215;51.938;8.464;2022-07-03T07:47:58;2.60;;;2.40;;
22097;SDS011;11215;51.938;8.464;2022-07-03T07:50:24;2.92;;;2.63;;
22097;SDS011;11215;51.938;8.464;2022-07-03T07:52:50;2.88;;;2.60;;
22097;SDS011;11215;51.938;8.464;2022-07-03T07:55:16;2.97;;;2.78;;
22097;SDS011;11215;51.938;8.464;2022-07-03T07:57:41;2.55;;;2.35;;
22097;SDS011;11215;51.938;8.464;2022-07-03T08:00:11;3.17;;;2.15;;
22097;SDS011;11215;51.938;8.464;2022-07-03T08:02:38;3.45;;;2.42;;
22097;SDS011;11215;51.938;8.464;2022-07-03T08:05:23;2.63;;;2.42;;
22097;SDS011;11215;51.938;8.464;2022-07-03T08:08:09;3.72;;;2.53;;
22097;SDS011;11215;51.938;8.464;2022-07-03T08:13:06;6.50;;;2.50;;
22097;SDS011;11215;51.938;8.464;2022-07-03T08:15:32;2.80;;;2.50;;
22097;SDS011;11215;51.938;8.464;2022-07-03T08:17:58;4.45;;;2.10;;
22097;SDS011;11215;51.938;8.464;2022-07-03T08:20:24;6.15;;;2.38;;
22097;SDS011;11215;51.938;8.464;2022-07-03T08:22:50;5.43;;;2.40;;
22097;SDS011;11215;51.938;8.464;2022-07-03T08:25:16;3.88;;;2.40;;
22097;SDS011;11215;51.938;8.464;2022-07-03T08:27:42;2.85;;;2.35;;
22097;SDS011;11215;51.938;8.464;2022-07-03T08:30:07;3.13;;;2.25;;
22097;SDS011;11215;51.938;8.464;2022-07-03T08:32:33;2.63;;;2.20;;
22097;SDS011;11215;51.938;8.464;2022-07-03T08:34:59;2.08;;;1.77;;
22097;SDS011;11215;51.938;8.464;2022-07-03T08:37:28;3.20;;;2.03;;
22097;SDS011;11215;51.938;8.464;2022-07-03T08:39:54;3.13;;;1.67;;
22097;SDS011;11215;51.938;8.464;2022-07-03T08:42:19;1.38;;;1.27;;
22097;SDS011;11215;51.938;8.464;2022-07-03T08:44:47;2.80;;;1.40;;
22097;SDS011;11215;51.938;8.464;2022-07-03T08:47:15;3.42;;;1.58;;
22097;SDS011;11215;51.938;8.464;2022-07-03T08:49:43;3.65;;;1.30;;
22097;SDS011;11215;51.938;8.464;2022-07-03T08:52:09;6.85;;;1.17;;
22097;SDS011;11215;51.938;8.464;2022-07-03T08:54:36;2.03;;;1.35;;
22097;SDS011;11215;51.938;8.464;2022-07-03T08:57:02;4.90;;;1.40;;
22097;SDS011;11215;51.938;8.464;2022-07-03T08:59:32;1.67;;;1.30;;
22097;SDS011;11215;51.938;8.464;2022-07-03T09:02:04;1.65;;;1.35;;
22097;SDS011;11215;51.938;8.464;2022-07-03T09:04:31;1.50;;;1.40;;
22097;SDS011;11215;51.938;8.464;2022-07-03T09:06:58;1.30;;;1.20;;
22097;SDS011;11215;51.938;8.464;2022-07-03T09:09:24;2.35;;;1.10;;
22097;SDS011;11215;51.938;8.464;2022-07-03T09:11:50;1.58;;;0.80;;
22097;SDS011;11215;51.938;8.464;2022-07-03T09:14:17;2.80;;;1.10;;
22097;SDS011;11215;51.938;8.464;2022-07-03T09:16:43;1.38;;;1.00;;
22097;SDS011;11215;51.938;8.464;2022-07-03T09:19:09;2.58;;;1.10;;
22097;SDS011;11215;51.938;8.464;2022-07-03T09:21:35;1.20;;;1.10;;
22097;SDS011;11215;51.938;8.464;2022-07-03T09:24:05;1.52;;;1.00;;
22097;SDS011;11215;51.938;8.464;2022-07-03T09:26:33;1.52;;;1.20;;
22097;SDS011;11215;51.938;8.464;2022-07-03T09:28:59;1.88;;;1.20;;
22097;SDS011;11215;51.938;8.464;2022-07-03T09:31:26;1.17;;;0.90;;
22097;SDS011;11215;51.938;8.464;2022-07-03T09:33:55;1.60;;;1.00;;
22097;SDS011;11215;51.938;8.464;2022-07-03T09:36:22;2.65;;;0.90;;
22097;SDS011;11215;51.938;8.464;2022-07-03T09:42:08;1.42;;;0.98;;
22097;SDS011;11215;51.938;8.464;2022-07-03T09:44:40;2.08;;;1.13;;
22097;SDS011;11215;51.938;8.464;2022-07-03T09:49:56;1.15;;;1.00;;
22097;SDS011;11215;51.938;8.464;2022-07-03T09:52:29;2.85;;;1.13;;
22097;SDS011;11215;51.938;8.464;2022-07-03T09:57:34;1.17;;;0.98;;
22097;SDS011;11215;51.938;8.464;2022-07-03T10:00:37;1.80;;;1.00;;
22097;SDS011;11215;51.938;8.464;2022-07-03T10:02:58;2.45;;;0.80;;
22097;SDS011;11215;51.938;8.464;2022-07-03T10:05:32;2.17;;;1.05;;
22097;SDS011;11215;51.938;8.464;2022-07-03T10:08:01;1.95;;;0.93;;
22097;SDS011;11215;51.938;8.464;2022-07-03T10:10:32;0.95;;;0.80;;
22097;SDS011;11215;51.938;8.464;2022-07-03T10:12:59;1.55;;;0.80;;
22097;SDS011;11215;51.938;8.464;2022-07-03T10:15:26;2.05;;;1.00;;
22097;SDS011;11215;51.938;8.464;2022-07-03T10:17:54;1.58;;;1.02;;
22097;SDS011;11215;51.938;8.464;2022-07-03T10:20:34;1.25;;;1.00;;
22097;SDS011;11215;51.938;8.464;2022-07-03T10:23:03;1.35;;;0.82;;
22097;SDS011;11215;51.938;8.464;2022-07-03T10:25:29;4.00;;;0.98;;
22097;SDS011;11215;51.938;8.464;2022-07-03T10:27:56;0.80;;;0.80;;
22097;SDS011;11215;51.938;8.464;2022-07-03T10:30:22;1.13;;;0.90;;
22097;SDS011;11215;51.938;8.464;2022-07-03T10:32:53;1.73;;;0.88;;
22097;SDS011;11215;51.938;8.464;2022-07-03T10:35:28;1.05;;;0.73;;
22097;SDS011;11215;51.938;8.464;2022-07-03T10:43:46;1.20;;;0.88;;
22097;SDS011;11215;51.938;8.464;2022-07-03T10:46:31;1.13;;;0.98;;
22097;SDS011;11215;51.938;8.464;2022-07-03T10:49:10;2.08;;;1.00;;
22097;SDS011;11215;51.938;8.464;2022-07-03T10:51:56;1.30;;;1.20;;
22097;SDS011;11215;51.938;8.464;2022-07-03T10:54:24;2.40;;;1.30;;
22097;SDS011;11215;51.938;8.464;2022-07-03T10:57:04;1.63;;;1.02;;
22097;SDS011;11215;51.938;8.464;2022-07-03T11:02:17;2.10;;;1.27;;
22097;SDS011;11215;51.938;8.464;2022-07-03T11:07:34;1.73;;;1.25;;
22097;SDS011;11215;51.938;8.464;2022-07-03T11:15:26;0.70;;;0.70;;
22097;SDS011;11215;51.938;8.464;2022-07-03T11:20:33;1.33;;;1.00;;
22097;SDS011;11215;51.938;8.464;2022-07-03T11:23:07;1.38;;;0.77;;
22097;SDS011;11215;51.938;8.464;2022-07-03T11:25:43;0.80;;;0.80;;
22097;SDS011;11215;51.938;8.464;2022-07-03T11:38:53;0.90;;;0.90;;
22097;SDS011;11215;51.938;8.464;2022-07-03T11:44:01;1.00;;;0.90;;
22097;SDS011;11215;51.938;8.464;2022-07-03T11:46:30;0.95;;;0.70;;
22097;SDS011;11215;51.938;8.464;2022-07-03T11:49:09;0.88;;;0.80;;
22097;SDS011;11215;51.938;8.464;2022-07-03T11:51:35;1.50;;;0.85;;
22097;SDS011;11215;51.938;8.464;2022-07-03T11:54:03;1.67;;;0.90;;
22097;SDS011;11215;51.938;8.464;2022-07-03T11:56:29;1.00;;;0.90;;
22097;SDS011;11215;51.938;8.464;2022-07-03T11:58:56;2.03;;;0.95;;
22097;SDS011;11215;51.938;8.464;2022-07-03T12:04:04;2.95;;;1.10;;
22097;SDS011;11215;51.938;8.464;2022-07-03T12:06:35;2.10;;;0.93;;
22097;SDS011;11215;51.938;8.464;2022-07-03T12:09:01;0.80;;;0.80;;
22097;SDS011;11215;51.938;8.464;2022-07-03T12:11:27;1.77;;;1.10;;
22097;SDS011;11215;51.938;8.464;2022-07-03T12:13:53;0.80;;;0.80;;
22097;SDS011;11215;51.938;8.464;2022-07-03T12:16:19;1.15;;;0.90;;
22097;SDS011;11215;51.938;8.464;2022-07-03T12:18:56;2.25;;;1.00;;
22097;SDS011;11215;51.938;8.464;2022-07-03T12:21:37;1.38;;;1.00;;
22097;SDS011;11215;51.938;8.464;2022-07-03T12:24:11;1.73;;;1.20;;
22097;SDS011;11215;51.938;8.464;2022-07-03T12:26:38;5.55;;;1.30;;
22097;SDS011;11215;51.938;8.464;2022-07-03T12:29:06;0.82;;;0.70;;
22097;SDS011;11215;51.938;8.464;2022-07-03T12:31:42;2.58;;;1.00;;
22097;SDS011;11215;51.938;8.464;2022-07-03T12:34:11;2.05;;;1.10;;
22097;SDS011;11215;51.938;8.464;2022-07-03T12:36:38;2.15;;;1.02;;
22097;SDS011;11215;51.938;8.464;2022-07-03T12:39:05;3.40;;;0.88;;
22097;SDS011;11215;51.938;8.464;2022-07-03T12:41:30;3.78;;;1.08;;
22097;SDS011;11215;51.938;8.464;2022-07-03T12:43:58;1.52;;;1.20;;
22097;SDS011;11215;51.938;8.464;2022-07-03T12:46:25;1.45;;;1.35;;
22097;SDS011;11215;51.938;8.464;2022-07-03T12:48:58;1.20;;;1.00;;
22097;SDS011;11215;51.938;8.464;2022-07-03T12:51:37;1.17;;;1.08;;
22097;SDS011;11215;51.938;8.464;2022-07-03T12:54:05;1.90;;;1.20;;
22097;SDS011;11215;51.938;8.464;2022-07-03T12:56:37;2.47;;;1.10;;
22097;SDS011;11215;51.938;8.464;2022-07-03T12:59:03;1.30;;;1.20;;
22097;SDS011;11215;51.938;8.464;2022-07-03T13:02:00;1.35;;;1.10;;
22097;SDS011;11215;51.938;8.464;2022-07-03T13:04:34;2.97;;;1.20;;
22097;SDS011;11215;51.938;8.464;2022-07-03T13:07:05;3.42;;;1.20;;
22097;SDS011;11215;51.938;8.464;2022-07-03T13:09:33;1.38;;;1.27;;
22097;SDS011;11215;51.938;8.464;2022-07-03T13:11:59;1.40;;;1.00;;
22097;SDS011;11215;51.938;8.464;2022-07-03T13:14:25;1.20;;;1.05;;
22097;SDS011;11215;51.938;8.464;2022-07-03T13:16:52;2.25;;;1.40;;
22097;SDS011;11215;51.938;8.464;2022-07-03T13:19:19;1.60;;;1.50;;
22097;SDS011;11215;51.938;8.464;2022-07-03T13:21:46;3.25;;;1.75;;
22097;SDS011;11215;51.938;8.464;2022-07-03T13:24:13;4.15;;;1.40;;
22097;SDS011;11215;51.938;8.464;2022-07-03T13:26:40;1.63;;;1.38;;
22097;SDS011;11215;51.938;8.464;2022-07-03T13:29:07;2.05;;;1.55;;
22097;SDS011;11215;51.938;8.464;2022-07-03T13:31:33;1.50;;;1.40;;
22097;SDS011;11215;51.938;8.464;2022-07-03T13:33:59;2.30;;;1.50;;
22097;SDS011;11215;51.938;8.464;2022-07-03T13:36:25;2.13;;;1.33;;
22097;SDS011;11215;51.938;8.464;2022-07-03T13:38:52;2.45;;;1.60;;
22097;SDS011;11215;51.938;8.464;2022-07-03T13:41:17;2.45;;;1.75;;
22097;SDS011;11215;51.938;8.464;2022-07-03T13:43:44;2.83;;;1.67;;
22097;SDS011;11215;51.938;8.464;2022-07-03T13:46:10;4.60;;;1.60;;
22097;SDS011;11215;51.938;8.464;2022-07-03T13:48:36;2.03;;;1.55;;
22097;SDS011;11215;51.938;8.464;2022-07-03T13:51:02;3.40;;;1.73;;
22097;SDS011;11215;51.938;8.464;2022-07-03T13:53:28;2.00;;;1.70;;
22097;SDS011;11215;51.938;8.464;2022-07-03T13:55:54;1.73;;;1.52;;
22097;SDS011;11215;51.938;8.464;2022-07-03T13:58:32;2.00;;;1.42;;
22097;SDS011;11215;51.938;8.464;2022-07-03T14:00:58;2.58;;;1.50;;
22097;SDS011;11215;51.938;8.464;2022-07-03T14:03:25;3.15;;;1.98;;
22097;SDS011;11215;51.938;8.464;2022-07-03T14:05:50;3.97;;;1.45;;
22097;SDS011;11215;51.938;8.464;2022-07-03T14:08:19;6.70;;;2.05;;
22097;SDS011;11215;51.938;8.464;2022-07-03T14:10:45;1.85;;;1.70;;
22097;SDS011;11215;51.938;8.464;2022-07-03T14:13:11;2.80;;;1.60;;
22097;SDS011;11215;51.938;8.464;2022-07-03T14:15:37;3.60;;;1.67;;
22097;SDS011;11215;51.938;8.464;2022-07-03T14:18:03;1.73;;;1.60;;
22097;SDS011;11215;51.938;8.464;2022-07-03T14:20:29;3.47;;;1.63;;
22097;SDS011;11215;51.938;8.464;2022-07-03T14:22:54;2.17;;;1.73;;
22097;SDS011;11215;51.938;8.464;2022-07-03T14:25:20;3.50;;;1.90;;
22097;SDS011;11215;51.938;8.464;2022-07-03T14:27:46;1.80;;;1.70;;
22097;SDS011;11215;51.938;8.464;2022-07-03T14:30:30;4.38;;;1.70;;
22097;SDS011;11215;51.938;8.464;2022-07-03T14:33:14;2.97;;;1.38;;
22097;SDS011;11215;51.938;8.464;2022-07-03T14:35:40;2.33;;;1.38;;
22097;SDS011;11215;51.938;8.464;2022-07-03T14:38:05;1.50;;;1.40;;
22097;SDS011;11215;51.938;8.464;2022-07-03T14:40:31;2.75;;;1.80;;
22097;SDS011;11215;51.938;8.464;2022-07-03T14:42:58;1.98;;;1.60;;
22097;SDS011;11215;51.938;8.464;2022-07-03T14:45:24;2.45;;;1.80;;
22097;SDS011;11215;51.938;8.464;2022-07-03T14:47:50;2.60;;;1.70;;
22097;SDS011;11215;51.938;8.464;2022-07-03T14:50:16;2.47;;;1.60;;
22097;SDS011;11215;51.938;8.464;2022-07-03T14:52:42;3.25;;;1.52;;
22097;SDS011;11215;51.938;8.464;2022-07-03T14:55:08;1.83;;;1.42;;
22097;SDS011;11215;51.938;8.464;2022-07-03T15:00:23;1.10;;;1.10;;
22097;SDS011;11215;51.938;8.464;2022-07-03T15:05:40;1.48;;;1.35;;
22097;SDS011;11215;51.938;8.464;2022-07-03T15:10:48;1.27;;;1.17;;
22097;SDS011;11215;51.938;8.464;2022-07-03T15:13:14;2.97;;;1.58;;
22097;SDS011;11215;51.938;8.464;2022-07-03T15:15:40;2.60;;;1.50;;
22097;SDS011;11215;51.938;8.464;2022-07-03T15:18:10;2.10;;;1.15;;
22097;SDS011;11215;51.938;8.464;2022-07-03T15:20:38;1.60;;;1.50;;
22097;SDS011;11215;51.938;8.464;2022-07-03T15:23:05;1.52;;;1.20;;
22097;SDS011;11215;51.938;8.464;2022-07-03T15:25:32;3.90;;;1.40;;
22097;SDS011;11215;51.938;8.464;2022-07-03T15:28:00;1.58;;;1.27;;
22097;SDS011;11215;51.938;8.464;2022-07-03T15:30:26;2.95;;;1.23;;
22097;SDS011;11215;51.938;8.464;2022-07-03T15:32:52;1.88;;;1.25;;
22097;SDS011;11215;51.938;8.464;2022-07-03T15:35:20;1.83;;;1.30;;
22097;SDS011;11215;51.938;8.464;2022-07-03T15:40:38;2.72;;;1.27;;
22097;SDS011;11215;51.938;8.464;2022-07-03T15:43:24;2.65;;;1.20;;
22097;SDS011;11215;51.938;8.464;2022-07-03T15:57:07;1.33;;;1.23;;
22097;SDS011;11215;51.938;8.464;2022-07-03T15:59:42;1.20;;;1.10;;
22097;SDS011;11215;51.938;8.464;2022-07-03T16:02:15;1.63;;;1.25;;
22097;SDS011;11215;51.938;8.464;2022-07-03T16:07:23;2.13;;;1.10;;
22097;SDS011;11215;51.938;8.464;2022-07-03T16:09:51;1.15;;;1.05;;
22097;SDS011;11215;51.938;8.464;2022-07-03T16:12:17;2.15;;;1.27;;
22097;SDS011;11215;51.938;8.464;2022-07-03T16:14:49;3.22;;;1.42;;
22097;SDS011;11215;51.938;8.464;2022-07-03T16:17:19;2.47;;;1.10;;
22097;SDS011;11215;51.938;8.464;2022-07-03T16:19:47;1.20;;;1.10;;
22097;SDS011;11215;51.938;8.464;2022-07-03T16:22:13;1.13;;;1.00;;
22097;SDS011;11215;51.938;8.464;2022-07-03T16:24:43;3.03;;;1.10;;
22097;SDS011;11215;51.938;8.464;2022-07-03T16:27:11;2.22;;;1.10;;
22097;SDS011;11215;51.938;8.464;2022-07-03T16:29:39;1.63;;;1.10;;
22097;SDS011;11215;51.938;8.464;2022-07-03T16:32:06;1.05;;;1.00;;
22097;SDS011;11215;51.938;8.464;2022-07-03T16:34:53;1.55;;;1.15;;
22097;SDS011;11215;51.938;8.464;2022-07-03T16:37:30;1.33;;;1.15;;